sensor_id;sensor_type;location;lat;lon;timestamp;P1;durP1;ratioP1;P2;durP2;ratioP2
53263;SDS011;39153;52.680;6.172;2022-07-29T00:02:12;3.38;;;1.15;;
53263;SDS011;39153;52.680;6.172;2022-07-29T00:04:38;3.42;;;0.85;;
53263;SDS011;39153;52.680;6.172;2022-07-29T00:07:04;3.50;;;0.88;;
53263;SDS011;39153;52.680;6.172;2022-07-29T00:09:30;3.30;;;1.00;;
53263;SDS011;39153;52.680;6.172;2022-07-29T00:11:57;2.38;;;0.95;;
53263;SDS011;39153;52.680;6.172;2022-07-29T00:14:24;2.42;;;0.80;;
53263;SDS011;39153;52.680;6.172;2022-07-29T00:16:50;4.88;;;1.30;;
53263;SDS011;39153;52.680;6.172;2022-07-29T00:19:16;4.32;;;1.20;;
53263;SDS011;39153;52.680;6.172;2022-07-29T00:21:41;2.65;;;1.00;;
53263;SDS011;39153;52.680;6.172;2022-07-29T00:24:07;7.88;;;1.42;;
53263;SDS011;39153;52.680;6.172;2022-07-29T00:26:33;3.22;;;1.02;;
53263;SDS011;39153;52.680;6.172;2022-07-29T00:29:02;2.88;;;1.10;;
53263;SDS011;39153;52.680;6.172;2022-07-29T00:31:29;2.78;;;1.00;;
53263;SDS011;39153;52.680;6.172;2022-07-29T00:33:55;3.58;;;1.20;;
53263;SDS011;39153;52.680;6.172;2022-07-29T00:36:21;2.90;;;1.20;;
53263;SDS011;39153;52.680;6.172;2022-07-29T00:38:47;2.63;;;1.08;;
53263;SDS011;39153;52.680;6.172;2022-07-29T00:41:14;2.65;;;1.20;;
53263;SDS011;39153;52.680;6.172;2022-07-29T00:43:41;2.45;;;1.02;;
53263;SDS011;39153;52.680;6.172;2022-07-29T00:46:07;3.10;;;1.10;;
53263;SDS011;39153;52.680;6.172;2022-07-29T00:48:32;3.17;;;1.00;;
53263;SDS011;39153;52.680;6.172;2022-07-29T00:51:02;2.65;;;1.13;;
53263;SDS011;39153;52.680;6.172;2022-07-29T00:53:29;4.25;;;1.38;;
53263;SDS011;39153;52.680;6.172;2022-07-29T00:55:55;3.85;;;1.17;;
53263;SDS011;39153;52.680;6.172;2022-07-29T00:58:22;4.18;;;1.25;;
53263;SDS011;39153;52.680;6.172;2022-07-29T01:00:48;2.50;;;1.00;;
53263;SDS011;39153;52.680;6.172;2022-07-29T01:03:14;3.67;;;1.25;;
53263;SDS011;39153;52.680;6.172;2022-07-29T01:05:40;3.58;;;1.15;;
53263;SDS011;39153;52.680;6.172;2022-07-29T01:08:09;4.28;;;1.33;;
53263;SDS011;39153;52.680;6.172;2022-07-29T01:10:37;2.65;;;1.10;;
53263;SDS011;39153;52.680;6.172;2022-07-29T01:13:05;3.63;;;1.10;;
53263;SDS011;39153;52.680;6.172;2022-07-29T01:15:32;3.53;;;1.08;;
53263;SDS011;39153;52.680;6.172;2022-07-29T01:18:07;3.10;;;1.40;;
53263;SDS011;39153;52.680;6.172;2022-07-29T01:29:32;3.47;;;1.27;;
53263;SDS011;39153;52.680;6.172;2022-07-29T01:32:11;4.40;;;1.67;;
53263;SDS011;39153;52.680;6.172;2022-07-29T01:40:23;2.67;;;1.23;;
53263;SDS011;39153;52.680;6.172;2022-07-29T01:42:54;3.92;;;1.40;;
53263;SDS011;39153;52.680;6.172;2022-07-29T01:48:15;4.45;;;1.35;;
53263;SDS011;39153;52.680;6.172;2022-07-29T01:50:46;3.42;;;1.23;;
53263;SDS011;39153;52.680;6.172;2022-07-29T01:53:23;3.45;;;1.40;;
53263;SDS011;39153;52.680;6.172;2022-07-29T01:55:54;3.17;;;1.40;;
53263;SDS011;39153;52.680;6.172;2022-07-29T01:58:23;4.15;;;1.60;;
53263;SDS011;39153;52.680;6.172;2022-07-29T02:00:50;4.80;;;1.48;;
53263;SDS011;39153;52.680;6.172;2022-07-29T02:03:17;2.90;;;1.40;;
53263;SDS011;39153;52.680;6.172;2022-07-29T02:05:44;5.90;;;1.80;;
53263;SDS011;39153;52.680;6.172;2022-07-29T02:08:13;4.03;;;1.48;;
53263;SDS011;39153;52.680;6.172;2022-07-29T02:10:40;4.18;;;1.65;;
53263;SDS011;39153;52.680;6.172;2022-07-29T02:13:09;4.82;;;1.60;;
53263;SDS011;39153;52.680;6.172;2022-07-29T02:15:37;4.00;;;1.45;;
53263;SDS011;39153;52.680;6.172;2022-07-29T02:18:07;3.47;;;1.30;;
53263;SDS011;39153;52.680;6.172;2022-07-29T02:20:34;3.67;;;1.50;;
53263;SDS011;39153;52.680;6.172;2022-07-29T02:23:02;4.05;;;1.70;;
53263;SDS011;39153;52.680;6.172;2022-07-29T02:25:29;3.65;;;1.65;;
53263;SDS011;39153;52.680;6.172;2022-07-29T02:27:55;3.45;;;1.50;;
53263;SDS011;39153;52.680;6.172;2022-07-29T02:30:23;3.85;;;1.40;;
53263;SDS011;39153;52.680;6.172;2022-07-29T02:32:52;3.17;;;1.40;;
53263;SDS011;39153;52.680;6.172;2022-07-29T02:35:19;3.20;;;1.30;;
53263;SDS011;39153;52.680;6.172;2022-07-29T02:37:46;4.95;;;1.77;;
53263;SDS011;39153;52.680;6.172;2022-07-29T02:40:36;3.85;;;1.38;;
53263;SDS011;39153;52.680;6.172;2022-07-29T02:43:04;4.72;;;1.60;;
53263;SDS011;39153;52.680;6.172;2022-07-29T02:45:32;5.32;;;1.63;;
53263;SDS011;39153;52.680;6.172;2022-07-29T02:47:59;3.28;;;1.30;;
53263;SDS011;39153;52.680;6.172;2022-07-29T02:50:38;3.13;;;1.45;;
53263;SDS011;39153;52.680;6.172;2022-07-29T02:55:59;4.00;;;1.42;;
53263;SDS011;39153;52.680;6.172;2022-07-29T02:58:57;5.07;;;1.50;;
53263;SDS011;39153;52.680;6.172;2022-07-29T03:01:26;3.30;;;1.50;;
53263;SDS011;39153;52.680;6.172;2022-07-29T03:03:56;3.53;;;1.38;;
53263;SDS011;39153;52.680;6.172;2022-07-29T03:06:28;2.63;;;1.55;;
53263;SDS011;39153;52.680;6.172;2022-07-29T03:08:55;2.92;;;1.30;;
53263;SDS011;39153;52.680;6.172;2022-07-29T03:11:22;3.83;;;1.52;;
53263;SDS011;39153;52.680;6.172;2022-07-29T03:13:49;5.70;;;1.30;;
53263;SDS011;39153;52.680;6.172;2022-07-29T03:16:15;4.65;;;1.40;;
53263;SDS011;39153;52.680;6.172;2022-07-29T03:18:43;2.65;;;1.38;;
53263;SDS011;39153;52.680;6.172;2022-07-29T03:21:09;5.60;;;1.80;;
53263;SDS011;39153;52.680;6.172;2022-07-29T03:23:34;3.15;;;1.42;;
53263;SDS011;39153;52.680;6.172;2022-07-29T03:26:00;3.72;;;1.42;;
53263;SDS011;39153;52.680;6.172;2022-07-29T03:28:26;3.55;;;1.23;;
53263;SDS011;39153;52.680;6.172;2022-07-29T03:30:52;3.55;;;1.17;;
53263;SDS011;39153;52.680;6.172;2022-07-29T03:33:18;3.35;;;1.40;;
53263;SDS011;39153;52.680;6.172;2022-07-29T03:35:44;3.15;;;1.40;;
53263;SDS011;39153;52.680;6.172;2022-07-29T03:38:10;5.97;;;1.60;;
53263;SDS011;39153;52.680;6.172;2022-07-29T03:40:56;3.55;;;1.45;;
53263;SDS011;39153;52.680;6.172;2022-07-29T03:43:26;4.45;;;1.35;;
53263;SDS011;39153;52.680;6.172;2022-07-29T03:45:56;5.53;;;1.20;;
53263;SDS011;39153;52.680;6.172;2022-07-29T03:48:24;6.47;;;1.60;;
53263;SDS011;39153;52.680;6.172;2022-07-29T03:50:54;2.22;;;1.10;;
53263;SDS011;39153;52.680;6.172;2022-07-29T03:53:20;7.32;;;1.40;;
53263;SDS011;39153;52.680;6.172;2022-07-29T03:55:47;4.45;;;1.70;;
53263;SDS011;39153;52.680;6.172;2022-07-29T03:58:16;3.95;;;1.38;;
53263;SDS011;39153;52.680;6.172;2022-07-29T04:00:43;4.30;;;1.42;;
53263;SDS011;39153;52.680;6.172;2022-07-29T04:03:11;3.40;;;1.50;;
53263;SDS011;39153;52.680;6.172;2022-07-29T04:05:38;2.97;;;1.27;;
53263;SDS011;39153;52.680;6.172;2022-07-29T04:08:04;5.22;;;1.30;;
53263;SDS011;39153;52.680;6.172;2022-07-29T04:10:30;4.13;;;1.35;;
53263;SDS011;39153;52.680;6.172;2022-07-29T04:12:56;3.10;;;1.38;;
53263;SDS011;39153;52.680;6.172;2022-07-29T04:15:21;4.50;;;1.42;;
53263;SDS011;39153;52.680;6.172;2022-07-29T04:17:47;3.63;;;1.38;;
53263;SDS011;39153;52.680;6.172;2022-07-29T04:20:13;4.90;;;1.13;;
53263;SDS011;39153;52.680;6.172;2022-07-29T04:22:39;4.72;;;1.40;;
53263;SDS011;39153;52.680;6.172;2022-07-29T04:25:05;4.65;;;1.73;;
53263;SDS011;39153;52.680;6.172;2022-07-29T04:27:31;3.30;;;1.40;;
53263;SDS011;39153;52.680;6.172;2022-07-29T04:29:57;4.65;;;1.30;;
53263;SDS011;39153;52.680;6.172;2022-07-29T04:32:23;4.65;;;1.52;;
53263;SDS011;39153;52.680;6.172;2022-07-29T04:34:49;4.55;;;1.30;;
53263;SDS011;39153;52.680;6.172;2022-07-29T04:37:16;4.82;;;1.50;;
53263;SDS011;39153;52.680;6.172;2022-07-29T04:39:41;6.72;;;1.70;;
53263;SDS011;39153;52.680;6.172;2022-07-29T04:42:07;3.67;;;1.52;;
53263;SDS011;39153;52.680;6.172;2022-07-29T04:44:33;6.13;;;1.52;;
53263;SDS011;39153;52.680;6.172;2022-07-29T04:46:58;5.15;;;1.75;;
53263;SDS011;39153;52.680;6.172;2022-07-29T04:49:24;8.35;;;2.88;;
53263;SDS011;39153;52.680;6.172;2022-07-29T04:51:50;3.33;;;1.38;;
53263;SDS011;39153;52.680;6.172;2022-07-29T04:54:15;4.18;;;1.92;;
53263;SDS011;39153;52.680;6.172;2022-07-29T04:56:41;4.20;;;1.67;;
53263;SDS011;39153;52.680;6.172;2022-07-29T04:59:07;2.85;;;1.23;;
53263;SDS011;39153;52.680;6.172;2022-07-29T05:01:32;4.15;;;1.35;;
53263;SDS011;39153;52.680;6.172;2022-07-29T05:03:58;4.15;;;1.60;;
53263;SDS011;39153;52.680;6.172;2022-07-29T05:06:24;5.10;;;1.85;;
53263;SDS011;39153;52.680;6.172;2022-07-29T05:08:49;3.42;;;1.50;;
53263;SDS011;39153;52.680;6.172;2022-07-29T05:11:15;3.53;;;1.50;;
53263;SDS011;39153;52.680;6.172;2022-07-29T05:13:41;3.80;;;1.42;;
53263;SDS011;39153;52.680;6.172;2022-07-29T05:16:07;4.40;;;1.52;;
53263;SDS011;39153;52.680;6.172;2022-07-29T05:18:33;3.30;;;1.60;;
53263;SDS011;39153;52.680;6.172;2022-07-29T05:20:58;4.53;;;1.50;;
53263;SDS011;39153;52.680;6.172;2022-07-29T05:23:24;4.28;;;1.52;;
53263;SDS011;39153;52.680;6.172;2022-07-29T05:25:50;4.35;;;1.27;;
53263;SDS011;39153;52.680;6.172;2022-07-29T05:28:15;8.02;;;1.63;;
53263;SDS011;39153;52.680;6.172;2022-07-29T05:30:41;3.53;;;1.15;;
53263;SDS011;39153;52.680;6.172;2022-07-29T05:33:07;3.85;;;1.85;;
53263;SDS011;39153;52.680;6.172;2022-07-29T05:35:32;3.50;;;1.50;;
53263;SDS011;39153;52.680;6.172;2022-07-29T05:37:59;4.60;;;1.50;;
53263;SDS011;39153;52.680;6.172;2022-07-29T05:40:25;2.88;;;1.58;;
53263;SDS011;39153;52.680;6.172;2022-07-29T05:42:51;3.22;;;1.35;;
53263;SDS011;39153;52.680;6.172;2022-07-29T05:45:17;4.85;;;1.45;;
53263;SDS011;39153;52.680;6.172;2022-07-29T05:47:42;2.85;;;1.48;;
53263;SDS011;39153;52.680;6.172;2022-07-29T05:50:08;4.63;;;1.63;;
53263;SDS011;39153;52.680;6.172;2022-07-29T05:52:34;3.50;;;1.40;;
53263;SDS011;39153;52.680;6.172;2022-07-29T05:55:00;4.75;;;1.60;;
53263;SDS011;39153;52.680;6.172;2022-07-29T05:57:29;4.07;;;1.70;;
53263;SDS011;39153;52.680;6.172;2022-07-29T05:59:54;2.95;;;1.55;;
53263;SDS011;39153;52.680;6.172;2022-07-29T06:02:20;3.55;;;1.50;;
53263;SDS011;39153;52.680;6.172;2022-07-29T06:04:46;3.65;;;1.60;;
53263;SDS011;39153;52.680;6.172;2022-07-29T06:07:11;5.60;;;1.90;;
53263;SDS011;39153;52.680;6.172;2022-07-29T06:09:37;4.68;;;1.55;;
53263;SDS011;39153;52.680;6.172;2022-07-29T06:12:03;4.28;;;1.60;;
53263;SDS011;39153;52.680;6.172;2022-07-29T06:14:29;7.00;;;1.77;;
53263;SDS011;39153;52.680;6.172;2022-07-29T06:16:55;9.27;;;2.22;;
53263;SDS011;39153;52.680;6.172;2022-07-29T06:19:20;3.85;;;1.65;;
53263;SDS011;39153;52.680;6.172;2022-07-29T06:21:46;3.42;;;1.40;;
53263;SDS011;39153;52.680;6.172;2022-07-29T06:24:13;4.40;;;1.90;;
53263;SDS011;39153;52.680;6.172;2022-07-29T06:26:39;5.07;;;1.60;;
53263;SDS011;39153;52.680;6.172;2022-07-29T06:29:06;5.32;;;1.80;;
53263;SDS011;39153;52.680;6.172;2022-07-29T06:31:32;3.83;;;1.65;;
53263;SDS011;39153;52.680;6.172;2022-07-29T06:33:58;3.25;;;1.58;;
53263;SDS011;39153;52.680;6.172;2022-07-29T06:36:24;5.78;;;1.67;;
53263;SDS011;39153;52.680;6.172;2022-07-29T06:38:50;5.82;;;1.80;;
53263;SDS011;39153;52.680;6.172;2022-07-29T06:41:15;5.30;;;1.85;;
53263;SDS011;39153;52.680;6.172;2022-07-29T06:43:42;6.30;;;1.60;;
53263;SDS011;39153;52.680;6.172;2022-07-29T06:46:10;4.75;;;1.85;;
53263;SDS011;39153;52.680;6.172;2022-07-29T06:48:37;4.95;;;1.80;;
53263;SDS011;39153;52.680;6.172;2022-07-29T06:51:04;4.15;;;1.52;;
53263;SDS011;39153;52.680;6.172;2022-07-29T06:53:31;5.88;;;1.90;;
53263;SDS011;39153;52.680;6.172;2022-07-29T06:55:58;6.05;;;1.83;;
53263;SDS011;39153;52.680;6.172;2022-07-29T06:58:25;7.25;;;1.85;;
53263;SDS011;39153;52.680;6.172;2022-07-29T07:00:52;4.70;;;1.98;;
53263;SDS011;39153;52.680;6.172;2022-07-29T07:03:18;7.00;;;1.90;;
53263;SDS011;39153;52.680;6.172;2022-07-29T07:05:44;6.35;;;2.10;;
53263;SDS011;39153;52.680;6.172;2022-07-29T07:08:11;4.70;;;1.98;;
53263;SDS011;39153;52.680;6.172;2022-07-29T07:10:37;4.30;;;1.92;;
53263;SDS011;39153;52.680;6.172;2022-07-29T07:13:03;4.65;;;1.92;;
53263;SDS011;39153;52.680;6.172;2022-07-29T07:15:30;4.53;;;1.90;;
53263;SDS011;39153;52.680;6.172;2022-07-29T07:17:55;4.78;;;2.00;;
53263;SDS011;39153;52.680;6.172;2022-07-29T07:20:22;3.85;;;2.03;;
53263;SDS011;39153;52.680;6.172;2022-07-29T07:22:48;6.85;;;2.45;;
53263;SDS011;39153;52.680;6.172;2022-07-29T07:25:14;6.45;;;1.90;;
53263;SDS011;39153;52.680;6.172;2022-07-29T07:27:39;14.30;;;2.72;;
53263;SDS011;39153;52.680;6.172;2022-07-29T07:30:05;7.55;;;1.95;;
53263;SDS011;39153;52.680;6.172;2022-07-29T07:32:32;6.97;;;2.25;;
53263;SDS011;39153;52.680;6.172;2022-07-29T07:34:58;6.25;;;1.90;;
53263;SDS011;39153;52.680;6.172;2022-07-29T07:37:24;7.07;;;2.00;;
53263;SDS011;39153;52.680;6.172;2022-07-29T07:39:51;8.30;;;2.20;;
53263;SDS011;39153;52.680;6.172;2022-07-29T07:42:17;6.82;;;2.40;;
53263;SDS011;39153;52.680;6.172;2022-07-29T07:44:43;4.63;;;1.98;;
53263;SDS011;39153;52.680;6.172;2022-07-29T07:47:11;6.65;;;2.15;;
53263;SDS011;39153;52.680;6.172;2022-07-29T07:49:37;4.15;;;1.90;;
53263;SDS011;39153;52.680;6.172;2022-07-29T07:52:03;5.82;;;2.20;;
53263;SDS011;39153;52.680;6.172;2022-07-29T07:54:29;6.18;;;2.22;;
53263;SDS011;39153;52.680;6.172;2022-07-29T07:56:55;4.15;;;2.20;;
53263;SDS011;39153;52.680;6.172;2022-07-29T07:59:21;5.35;;;2.50;;
53263;SDS011;39153;52.680;6.172;2022-07-29T08:01:47;5.07;;;2.20;;
53263;SDS011;39153;52.680;6.172;2022-07-29T08:04:13;3.90;;;2.17;;
53263;SDS011;39153;52.680;6.172;2022-07-29T08:06:39;6.05;;;2.70;;
53263;SDS011;39153;52.680;6.172;2022-07-29T08:09:05;7.00;;;2.38;;
53263;SDS011;39153;52.680;6.172;2022-07-29T08:11:31;4.45;;;2.25;;
53263;SDS011;39153;52.680;6.172;2022-07-29T08:13:57;6.32;;;2.42;;
53263;SDS011;39153;52.680;6.172;2022-07-29T08:16:23;5.13;;;2.40;;
53263;SDS011;39153;52.680;6.172;2022-07-29T08:18:50;4.68;;;2.28;;
53263;SDS011;39153;52.680;6.172;2022-07-29T08:21:17;8.68;;;2.63;;
53263;SDS011;39153;52.680;6.172;2022-07-29T08:23:46;9.40;;;2.58;;
53263;SDS011;39153;52.680;6.172;2022-07-29T08:26:15;4.22;;;1.92;;
53263;SDS011;39153;52.680;6.172;2022-07-29T08:28:42;4.97;;;2.25;;
53263;SDS011;39153;52.680;6.172;2022-07-29T08:31:14;6.75;;;2.10;;
53263;SDS011;39153;52.680;6.172;2022-07-29T08:33:41;6.13;;;2.15;;
53263;SDS011;39153;52.680;6.172;2022-07-29T08:36:07;6.10;;;2.45;;
53263;SDS011;39153;52.680;6.172;2022-07-29T08:38:33;6.63;;;2.50;;
53263;SDS011;39153;52.680;6.172;2022-07-29T08:41:02;7.00;;;2.20;;
53263;SDS011;39153;52.680;6.172;2022-07-29T08:43:28;4.65;;;2.30;;
53263;SDS011;39153;52.680;6.172;2022-07-29T08:45:54;5.68;;;2.05;;
53263;SDS011;39153;52.680;6.172;2022-07-29T08:48:21;8.15;;;2.45;;
53263;SDS011;39153;52.680;6.172;2022-07-29T08:50:51;5.45;;;2.25;;
53263;SDS011;39153;52.680;6.172;2022-07-29T08:53:21;5.57;;;2.28;;
53263;SDS011;39153;52.680;6.172;2022-07-29T08:55:51;5.15;;;1.90;;
53263;SDS011;39153;52.680;6.172;2022-07-29T08:58:17;5.32;;;2.38;;
53263;SDS011;39153;52.680;6.172;2022-07-29T09:00:45;5.70;;;2.30;;
53263;SDS011;39153;52.680;6.172;2022-07-29T09:03:15;6.50;;;1.90;;
53263;SDS011;39153;52.680;6.172;2022-07-29T09:05:43;6.13;;;2.17;;
53263;SDS011;39153;52.680;6.172;2022-07-29T09:08:11;5.82;;;2.00;;
53263;SDS011;39153;52.680;6.172;2022-07-29T09:10:41;5.95;;;2.10;;
53263;SDS011;39153;52.680;6.172;2022-07-29T09:13:08;7.65;;;2.10;;
53263;SDS011;39153;52.680;6.172;2022-07-29T09:15:34;7.80;;;2.25;;
53263;SDS011;39153;52.680;6.172;2022-07-29T09:17:59;4.32;;;2.08;;
53263;SDS011;39153;52.680;6.172;2022-07-29T09:20:25;6.22;;;2.15;;
53263;SDS011;39153;52.680;6.172;2022-07-29T09:23:12;6.18;;;2.72;;
53263;SDS011;39153;52.680;6.172;2022-07-29T09:25:39;5.13;;;2.10;;
53263;SDS011;39153;52.680;6.172;2022-07-29T09:28:12;5.05;;;1.75;;
53263;SDS011;39153;52.680;6.172;2022-07-29T09:30:52;5.70;;;2.08;;
53263;SDS011;39153;52.680;6.172;2022-07-29T09:33:20;6.05;;;1.75;;
53263;SDS011;39153;52.680;6.172;2022-07-29T09:35:57;4.60;;;1.75;;
53263;SDS011;39153;52.680;6.172;2022-07-29T09:38:25;3.25;;;1.67;;
53263;SDS011;39153;52.680;6.172;2022-07-29T09:40:57;6.95;;;1.80;;
53263;SDS011;39153;52.680;6.172;2022-07-29T09:43:24;4.07;;;1.95;;
53263;SDS011;39153;52.680;6.172;2022-07-29T09:45:50;5.22;;;1.90;;
53263;SDS011;39153;52.680;6.172;2022-07-29T09:48:19;5.32;;;2.20;;
53263;SDS011;39153;52.680;6.172;2022-07-29T09:50:46;4.20;;;2.05;;
53263;SDS011;39153;52.680;6.172;2022-07-29T09:53:33;3.83;;;2.05;;
53263;SDS011;39153;52.680;6.172;2022-07-29T09:56:01;5.53;;;2.28;;
53263;SDS011;39153;52.680;6.172;2022-07-29T09:58:28;5.10;;;2.00;;
53263;SDS011;39153;52.680;6.172;2022-07-29T10:00:54;4.75;;;1.95;;
53263;SDS011;39153;52.680;6.172;2022-07-29T10:03:20;6.57;;;2.03;;
53263;SDS011;39153;52.680;6.172;2022-07-29T10:06:03;5.53;;;2.03;;
53263;SDS011;39153;52.680;6.172;2022-07-29T10:08:30;6.57;;;1.98;;
53263;SDS011;39153;52.680;6.172;2022-07-29T10:11:18;8.13;;;2.03;;
53263;SDS011;39153;52.680;6.172;2022-07-29T10:13:44;3.97;;;1.95;;
53263;SDS011;39153;52.680;6.172;2022-07-29T10:16:11;7.22;;;1.98;;
53263;SDS011;39153;52.680;6.172;2022-07-29T10:18:37;6.93;;;2.25;;
53263;SDS011;39153;52.680;6.172;2022-07-29T10:21:04;4.75;;;1.90;;
53263;SDS011;39153;52.680;6.172;2022-07-29T10:23:30;5.47;;;2.30;;
53263;SDS011;39153;52.680;6.172;2022-07-29T10:25:56;5.57;;;2.03;;
53263;SDS011;39153;52.680;6.172;2022-07-29T10:28:22;4.85;;;2.15;;
53263;SDS011;39153;52.680;6.172;2022-07-29T10:30:49;5.55;;;1.90;;
53263;SDS011;39153;52.680;6.172;2022-07-29T10:43:58;5.57;;;2.67;;
53263;SDS011;39153;52.680;6.172;2022-07-29T10:46:26;4.45;;;1.90;;
53263;SDS011;39153;52.680;6.172;2022-07-29T10:54:19;4.63;;;2.05;;
53263;SDS011;39153;52.680;6.172;2022-07-29T11:05:18;5.65;;;2.05;;
53263;SDS011;39153;52.680;6.172;2022-07-29T11:10:35;7.30;;;2.00;;
53263;SDS011;39153;52.680;6.172;2022-07-29T11:13:00;7.00;;;2.22;;
53263;SDS011;39153;52.680;6.172;2022-07-29T11:15:26;8.32;;;2.10;;
53263;SDS011;39153;52.680;6.172;2022-07-29T11:20:39;5.72;;;2.38;;
53263;SDS011;39153;52.680;6.172;2022-07-29T11:31:16;5.78;;;2.10;;
53263;SDS011;39153;52.680;6.172;2022-07-29T11:39:30;5.95;;;2.10;;
53263;SDS011;39153;52.680;6.172;2022-07-29T11:44:53;6.70;;;1.85;;
53263;SDS011;39153;52.680;6.172;2022-07-29T11:47:24;5.45;;;1.92;;
53263;SDS011;39153;52.680;6.172;2022-07-29T11:49:51;6.28;;;1.58;;
53263;SDS011;39153;52.680;6.172;2022-07-29T11:52:17;6.22;;;1.70;;
53263;SDS011;39153;52.680;6.172;2022-07-29T11:54:44;7.43;;;2.45;;
53263;SDS011;39153;52.680;6.172;2022-07-29T11:57:12;4.75;;;1.83;;
53263;SDS011;39153;52.680;6.172;2022-07-29T11:59:39;6.43;;;1.67;;
53263;SDS011;39153;52.680;6.172;2022-07-29T12:02:09;5.20;;;1.65;;
53263;SDS011;39153;52.680;6.172;2022-07-29T12:04:48;4.70;;;1.58;;
53263;SDS011;39153;52.680;6.172;2022-07-29T12:07:19;5.93;;;1.77;;
53263;SDS011;39153;52.680;6.172;2022-07-29T12:10:01;6.68;;;2.00;;
53263;SDS011;39153;52.680;6.172;2022-07-29T12:12:28;6.65;;;1.50;;
53263;SDS011;39153;52.680;6.172;2022-07-29T12:14:54;4.25;;;1.50;;
53263;SDS011;39153;52.680;6.172;2022-07-29T12:17:27;5.70;;;1.83;;
53263;SDS011;39153;52.680;6.172;2022-07-29T12:19:54;5.22;;;1.50;;
53263;SDS011;39153;52.680;6.172;2022-07-29T12:22:27;5.32;;;1.63;;
53263;SDS011;39153;52.680;6.172;2022-07-29T12:25:01;6.13;;;1.90;;
53263;SDS011;39153;52.680;6.172;2022-07-29T12:27:32;3.40;;;1.35;;
53263;SDS011;39153;52.680;6.172;2022-07-29T12:29:59;4.63;;;1.50;;
53263;SDS011;39153;52.680;6.172;2022-07-29T12:32:38;3.72;;;1.48;;
53263;SDS011;39153;52.680;6.172;2022-07-29T12:35:08;5.68;;;1.55;;
53263;SDS011;39153;52.680;6.172;2022-07-29T12:37:35;4.78;;;1.90;;
53263;SDS011;39153;52.680;6.172;2022-07-29T12:40:03;4.00;;;2.05;;
53263;SDS011;39153;52.680;6.172;2022-07-29T12:42:31;6.28;;;2.25;;
53263;SDS011;39153;52.680;6.172;2022-07-29T12:44:57;6.25;;;2.42;;
53263;SDS011;39153;52.680;6.172;2022-07-29T12:47:23;8.43;;;2.30;;
53263;SDS011;39153;52.680;6.172;2022-07-29T12:49:49;8.55;;;2.35;;
53263;SDS011;39153;52.680;6.172;2022-07-29T12:52:32;5.95;;;2.45;;
53263;SDS011;39153;52.680;6.172;2022-07-29T12:54:59;6.68;;;2.22;;
53263;SDS011;39153;52.680;6.172;2022-07-29T12:57:26;4.10;;;1.90;;
53263;SDS011;39153;52.680;6.172;2022-07-29T12:59:58;7.82;;;2.20;;
53263;SDS011;39153;52.680;6.172;2022-07-29T13:02:38;7.15;;;2.22;;
53263;SDS011;39153;52.680;6.172;2022-07-29T13:05:05;4.80;;;2.33;;
53263;SDS011;39153;52.680;6.172;2022-07-29T13:07:33;8.90;;;2.63;;
53263;SDS011;39153;52.680;6.172;2022-07-29T13:10:11;6.60;;;2.30;;
53263;SDS011;39153;52.680;6.172;2022-07-29T13:12:40;5.45;;;2.13;;
53263;SDS011;39153;52.680;6.172;2022-07-29T13:15:28;4.90;;;2.15;;
53263;SDS011;39153;52.680;6.172;2022-07-29T13:17:54;6.53;;;2.10;;
53263;SDS011;39153;52.680;6.172;2022-07-29T13:20:23;5.47;;;2.10;;
53263;SDS011;39153;52.680;6.172;2022-07-29T13:22:49;5.55;;;2.05;;
53263;SDS011;39153;52.680;6.172;2022-07-29T13:25:22;6.93;;;2.20;;
53263;SDS011;39153;52.680;6.172;2022-07-29T13:27:53;4.95;;;1.95;;
53263;SDS011;39153;52.680;6.172;2022-07-29T13:30:19;6.30;;;2.15;;
53263;SDS011;39153;52.680;6.172;2022-07-29T13:32:46;11.63;;;2.35;;
53263;SDS011;39153;52.680;6.172;2022-07-29T13:35:12;3.78;;;1.60;;
53263;SDS011;39153;52.680;6.172;2022-07-29T13:37:38;3.67;;;1.80;;
53263;SDS011;39153;52.680;6.172;2022-07-29T13:40:05;6.40;;;2.30;;
53263;SDS011;39153;52.680;6.172;2022-07-29T13:42:32;6.65;;;2.40;;
53263;SDS011;39153;52.680;6.172;2022-07-29T13:44:58;7.90;;;2.45;;
53263;SDS011;39153;52.680;6.172;2022-07-29T13:47:25;6.70;;;2.58;;
53263;SDS011;39153;52.680;6.172;2022-07-29T13:49:50;7.25;;;2.50;;
53263;SDS011;39153;52.680;6.172;2022-07-29T13:52:16;4.80;;;1.88;;
53263;SDS011;39153;52.680;6.172;2022-07-29T13:54:42;5.68;;;1.60;;
53263;SDS011;39153;52.680;6.172;2022-07-29T13:57:09;3.58;;;1.40;;
53263;SDS011;39153;52.680;6.172;2022-07-29T13:59:35;4.93;;;1.40;;
53263;SDS011;39153;52.680;6.172;2022-07-29T14:02:01;6.55;;;1.77;;
53263;SDS011;39153;52.680;6.172;2022-07-29T14:04:27;5.07;;;2.20;;
53263;SDS011;39153;52.680;6.172;2022-07-29T14:06:53;6.13;;;1.65;;
53263;SDS011;39153;52.680;6.172;2022-07-29T14:09:19;4.32;;;1.83;;
53263;SDS011;39153;52.680;6.172;2022-07-29T14:11:45;4.40;;;1.75;;
53263;SDS011;39153;52.680;6.172;2022-07-29T14:14:12;6.60;;;2.03;;
53263;SDS011;39153;52.680;6.172;2022-07-29T14:16:38;5.18;;;2.10;;
53263;SDS011;39153;52.680;6.172;2022-07-29T14:19:04;4.97;;;1.80;;
53263;SDS011;39153;52.680;6.172;2022-07-29T14:21:29;6.07;;;1.95;;
53263;SDS011;39153;52.680;6.172;2022-07-29T14:23:55;7.00;;;1.90;;
53263;SDS011;39153;52.680;6.172;2022-07-29T14:26:21;5.55;;;1.92;;
53263;SDS011;39153;52.680;6.172;2022-07-29T14:28:47;4.95;;;1.50;;
53263;SDS011;39153;52.680;6.172;2022-07-29T14:31:13;6.82;;;1.88;;
53263;SDS011;39153;52.680;6.172;2022-07-29T14:33:39;4.88;;;2.00;;
53263;SDS011;39153;52.680;6.172;2022-07-29T14:36:05;5.10;;;1.90;;
53263;SDS011;39153;52.680;6.172;2022-07-29T14:38:31;7.88;;;1.92;;
53263;SDS011;39153;52.680;6.172;2022-07-29T14:40:57;6.68;;;1.85;;
53263;SDS011;39153;52.680;6.172;2022-07-29T14:43:22;7.75;;;1.80;;
53263;SDS011;39153;52.680;6.172;2022-07-29T14:45:48;3.65;;;1.40;;
53263;SDS011;39153;52.680;6.172;2022-07-29T14:48:14;4.20;;;1.30;;
53263;SDS011;39153;52.680;6.172;2022-07-29T14:50:39;5.57;;;1.65;;
53263;SDS011;39153;52.680;6.172;2022-07-29T14:53:05;3.35;;;1.27;;
53263;SDS011;39153;52.680;6.172;2022-07-29T14:55:31;7.53;;;1.63;;
53263;SDS011;39153;52.680;6.172;2022-07-29T14:57:57;8.27;;;2.08;;
53263;SDS011;39153;52.680;6.172;2022-07-29T15:00:24;3.95;;;1.35;;
53263;SDS011;39153;52.680;6.172;2022-07-29T15:02:50;5.63;;;1.52;;
53263;SDS011;39153;52.680;6.172;2022-07-29T15:05:15;4.55;;;1.40;;
53263;SDS011;39153;52.680;6.172;2022-07-29T15:07:41;2.67;;;1.30;;
53263;SDS011;39153;52.680;6.172;2022-07-29T15:10:07;5.32;;;1.52;;
53263;SDS011;39153;52.680;6.172;2022-07-29T15:12:32;3.10;;;1.35;;
53263;SDS011;39153;52.680;6.172;2022-07-29T15:14:58;4.80;;;1.30;;
53263;SDS011;39153;52.680;6.172;2022-07-29T15:17:24;5.50;;;1.40;;
53263;SDS011;39153;52.680;6.172;2022-07-29T15:19:50;10.30;;;1.52;;
53263;SDS011;39153;52.680;6.172;2022-07-29T15:22:16;4.60;;;1.05;;
53263;SDS011;39153;52.680;6.172;2022-07-29T15:24:42;7.72;;;1.55;;
53263;SDS011;39153;52.680;6.172;2022-07-29T15:27:07;4.88;;;1.42;;
53263;SDS011;39153;52.680;6.172;2022-07-29T15:29:39;5.30;;;1.48;;
53263;SDS011;39153;52.680;6.172;2022-07-29T15:32:06;3.92;;;1.10;;
53263;SDS011;39153;52.680;6.172;2022-07-29T15:34:31;6.47;;;1.55;;
53263;SDS011;39153;52.680;6.172;2022-07-29T15:36:57;3.83;;;1.20;;
53263;SDS011;39153;52.680;6.172;2022-07-29T15:39:23;4.88;;;1.25;;
53263;SDS011;39153;52.680;6.172;2022-07-29T15:41:48;3.67;;;1.17;;
53263;SDS011;39153;52.680;6.172;2022-07-29T15:44:14;6.03;;;1.20;;
53263;SDS011;39153;52.680;6.172;2022-07-29T15:46:40;3.67;;;1.30;;
53263;SDS011;39153;52.680;6.172;2022-07-29T15:49:24;4.13;;;1.23;;
53263;SDS011;39153;52.680;6.172;2022-07-29T15:51:56;6.43;;;1.33;;
53263;SDS011;39153;52.680;6.172;2022-07-29T15:54:26;4.28;;;1.30;;
53263;SDS011;39153;52.680;6.172;2022-07-29T15:56:53;5.63;;;1.40;;
53263;SDS011;39153;52.680;6.172;2022-07-29T15:59:19;4.15;;;1.10;;